Time;durP1;ratioP1;P1;durP2;ratioP2;P2;SDS_P1;SDS_P2;PMS_P1;PMS_P2;Temp;Humidity;BMP_temperature;BMP_pressure;BME280_temperature;BME280_humidity;BME280_pressure;Samples;Min_cycle;Max_cycle;Signal;HPM_P1;HPM_P2
2024/01/12 00:00:10;;;;;;;41.73;21.50;;;1.80;99.90;;;;;;4992526;28;20077;-83
2024/01/12 00:02:39;;;;;;;40.50;22.50;;;1.80;99.90;;;;;;4978194;28;20034;-74
2024/01/12 00:05:08;;;;;;;40.00;21.07;;;1.80;99.90;;;;;;4977238;28;20038;-83
2024/01/12 00:07:34;;;;;;;41.20;22.50;;;1.80;99.90;;;;;;4945732;28;20474;-83
2024/01/12 00:10:01;;;;;;;49.10;24.10;;;1.80;99.90;;;;;;4960767;28;20042;-74
2024/01/12 00:12:27;;;;;;;42.27;21.73;;;1.80;99.90;;;;;;4988763;28;20035;-85
2024/01/12 00:14:53;;;;;;;36.00;19.50;;;1.80;99.90;;;;;;4977336;28;20050;-81
2024/01/12 00:17:20;;;;;;;37.33;20.20;;;1.80;99.90;;;;;;4959366;28;20408;-82
2024/01/12 00:19:46;;;;;;;37.10;18.73;;;1.90;99.90;;;;;;4957953;28;20405;-81
2024/01/12 00:22:13;;;;;;;35.87;18.53;;;1.90;99.90;;;;;;4976087;28;20043;-80
2024/01/12 00:24:39;;;;;;;32.60;16.23;;;1.90;99.90;;;;;;4976759;28;20058;-77
2024/01/12 00:27:07;;;;;;;32.83;16.93;;;1.90;99.90;;;;;;5014741;28;20045;-85
2024/01/12 00:29:34;;;;;;;32.20;15.87;;;2.00;99.90;;;;;;4980165;28;20049;-74
2024/01/12 00:32:00;;;;;;;29.90;14.77;;;2.00;99.90;;;;;;4961243;28;20054;-83
2024/01/12 00:34:26;;;;;;;30.17;15.57;;;2.00;99.90;;;;;;4977793;28;20034;-79
2024/01/12 00:36:53;;;;;;;34.17;17.27;;;2.00;99.90;;;;;;4976420;28;20044;-87
2024/01/12 00:39:20;;;;;;;38.50;19.97;;;2.00;99.90;;;;;;4973932;28;20065;-81
2024/01/12 00:41:47;;;;;;;38.70;18.37;;;2.00;99.90;;;;;;5008955;28;20042;-83
2024/01/12 00:44:13;;;;;;;29.17;15.13;;;2.00;99.90;;;;;;4973884;28;20042;-84
2024/01/12 00:46:40;;;;;;;35.27;16.63;;;2.00;99.90;;;;;;4977002;28;20043;-86
2024/01/12 00:49:07;;;;;;;35.70;18.70;;;2.00;99.90;;;;;;4977619;28;20034;-74
2024/01/12 00:51:33;;;;;;;32.13;16.77;;;2.00;99.90;;;;;;4960458;28;20034;-83
2024/01/12 00:53:59;;;;;;;36.87;19.53;;;2.00;99.90;;;;;;4993890;28;20030;-83
2024/01/12 00:56:26;;;;;;;33.87;16.50;;;2.00;99.90;;;;;;4992721;28;20030;-84
2024/01/12 00:58:52;;;;;;;29.73;16.00;;;2.00;99.90;;;;;;4977299;28;20038;-85
2024/01/12 01:01:18;;;;;;;31.40;15.97;;;2.00;99.90;;;;;;4975450;28;20045;-74
2024/01/12 01:03:45;;;;;;;31.93;15.00;;;2.00;99.90;;;;;;4976973;28;20030;-83
2024/01/12 01:06:11;;;;;;;29.93;14.67;;;2.00;99.90;;;;;;4976010;28;20039;-83
2024/01/12 01:08:37;;;;;;;30.13;13.73;;;2.00;99.90;;;;;;4975778;28;20492;-82
2024/01/12 01:11:04;;;;;;;35.10;16.97;;;2.10;99.90;;;;;;4977350;28;20041;-83
2024/01/12 01:13:31;;;;;;;36.20;18.47;;;2.10;99.90;;;;;;5007414;28;20062;-79
2024/01/12 01:15:58;;;;;;;32.60;15.33;;;2.10;99.90;;;;;;5008723;28;20417;-86
2024/01/12 01:18:24;;;;;;;34.83;16.87;;;2.10;99.90;;;;;;4991441;28;20061;-82
2024/01/12 01:20:50;;;;;;;38.30;14.93;;;2.10;99.90;;;;;;5009160;28;20049;-84
2024/01/12 01:23:17;;;;;;;27.13;12.90;;;2.10;99.90;;;;;;4977270;28;20035;-77
2024/01/12 01:25:43;;;;;;;23.70;10.00;;;2.10;99.90;;;;;;4959620;28;20096;-82
2024/01/12 01:28:09;;;;;;;25.57;11.70;;;2.20;99.90;;;;;;4977174;28;20058;-82
2024/01/12 01:30:36;;;;;;;23.47;11.10;;;2.20;99.90;;;;;;4961014;28;20039;-84
2024/01/12 01:33:02;;;;;;;24.63;11.23;;;2.20;99.90;;;;;;4963277;28;20398;-83
2024/01/12 01:35:28;;;;;;;22.37;10.00;;;2.20;99.90;;;;;;4995484;28;20526;-73
2024/01/12 01:37:55;;;;;;;31.40;12.90;;;2.30;99.90;;;;;;4997666;28;20034;-80
2024/01/12 01:40:21;;;;;;;26.90;11.50;;;2.30;99.90;;;;;;4979948;28;20038;-84
2024/01/12 01:42:48;;;;;;;24.60;10.90;;;2.30;99.90;;;;;;4980999;28;20030;-84
2024/01/12 01:45:15;;;;;;;29.57;12.03;;;2.30;99.90;;;;;;4996370;28;20038;-78
2024/01/12 01:47:43;;;;;;;27.37;12.33;;;2.30;99.90;;;;;;4995731;28;20776;-85
2024/01/12 01:50:13;;;;;;;24.53;10.90;;;2.30;99.90;;;;;;5012824;28;20405;-85
2024/01/12 01:52:40;;;;;;;24.47;10.97;;;2.30;99.90;;;;;;5010861;28;20045;-85
2024/01/12 01:55:08;;;;;;;22.90;11.10;;;2.30;99.90;;;;;;4963116;28;20714;-85
2024/01/12 01:57:35;;;;;;;26.27;11.70;;;2.30;99.90;;;;;;4992393;28;20035;-83
2024/01/12 02:00:02;;;;;;;24.33;10.93;;;2.30;99.90;;;;;;4996265;28;20030;-81
2024/01/12 02:02:39;;;;;;;37.03;13.30;;;2.30;99.90;;;;;;4982173;28;20031;-84
2024/01/12 02:05:07;;;;;;;28.10;11.53;;;2.30;99.90;;;;;;4979231;28;20041;-84
2024/01/12 02:07:36;;;;;;;27.37;12.60;;;2.30;99.90;;;;;;4978528;28;20042;-83
2024/01/12 02:10:03;;;;;;;26.57;11.00;;;2.30;99.90;;;;;;4963406;28;20034;-81
2024/01/12 02:12:30;;;;;;;25.40;11.30;;;2.40;99.90;;;;;;4980469;28;20049;-84
2024/01/12 02:14:57;;;;;;;25.07;9.80;;;2.30;99.90;;;;;;4948713;28;20646;-81
2024/01/12 02:17:23;;;;;;;24.83;11.73;;;2.30;99.90;;;;;;4980771;28;20037;-83
2024/01/12 02:19:57;;;;;;;19.57;11.07;;;2.30;99.90;;;;;;4965474;28;20030;-74
2024/01/12 02:22:23;;;;;;;21.73;10.37;;;2.30;99.90;;;;;;5011986;28;20026;-82
2024/01/12 02:24:49;;;;;;;21.07;9.83;;;2.30;99.90;;;;;;4962684;28;20026;-80
2024/01/12 02:27:16;;;;;;;23.07;9.57;;;2.30;99.90;;;;;;4980329;28;20022;-84
2024/01/12 02:29:42;;;;;;;21.37;9.43;;;2.30;99.90;;;;;;4981521;28;20026;-79
2024/01/12 02:32:09;;;;;;;19.60;9.20;;;2.40;99.90;;;;;;4979928;28;20609;-85
2024/01/12 02:34:35;;;;;;;20.83;9.80;;;2.30;99.90;;;;;;4994518;28;20482;-79
2024/01/12 02:37:02;;;;;;;25.03;11.07;;;2.30;99.90;;;;;;4945793;28;20038;-84
2024/01/12 02:39:28;;;;;;;32.23;12.93;;;2.30;99.90;;;;;;4978163;28;20580;-78
2024/01/12 02:41:57;;;;;;;25.97;11.43;;;2.40;99.90;;;;;;4994320;28;20396;-79
2024/01/12 02:44:24;;;;;;;29.27;12.63;;;2.40;99.90;;;;;;4980042;28;20042;-80
2024/01/12 02:46:50;;;;;;;23.27;10.57;;;2.30;99.90;;;;;;4962950;28;20037;-78
2024/01/12 02:49:16;;;;;;;20.10;9.97;;;2.40;99.90;;;;;;4980277;28;21021;-84
2024/01/12 02:51:43;;;;;;;20.23;10.00;;;2.40;99.90;;;;;;4979082;28;20064;-83
2024/01/12 02:54:09;;;;;;;20.07;9.33;;;2.40;99.90;;;;;;4978226;28;20038;-83
2024/01/12 02:56:36;;;;;;;26.53;9.83;;;2.40;99.90;;;;;;4978960;28;20031;-82
2024/01/12 02:59:02;;;;;;;19.27;8.63;;;2.40;99.90;;;;;;4979367;28;20373;-81
2024/01/12 03:01:29;;;;;;;20.63;9.90;;;2.40;99.90;;;;;;4962865;28;20544;-85
2024/01/12 03:03:55;;;;;;;19.07;9.03;;;2.40;99.90;;;;;;5010603;28;20488;-79
2024/01/12 03:06:21;;;;;;;17.93;8.40;;;2.40;99.90;;;;;;4963030;28;20378;-82
2024/01/12 03:08:48;;;;;;;19.83;7.77;;;2.40;99.90;;;;;;4982168;28;20035;-81
2024/01/12 03:11:14;;;;;;;19.00;8.53;;;2.40;99.90;;;;;;4977223;28;20397;-82
2024/01/12 03:13:40;;;;;;;27.47;9.87;;;2.40;99.90;;;;;;4978626;28;20630;-79
2024/01/12 03:16:18;;;;;;;20.73;9.33;;;2.40;99.90;;;;;;4978963;28;20486;-80
2024/01/12 03:18:45;;;;;;;16.35;8.02;;;2.40;99.90;;;;;;4993234;28;20393;-80
2024/01/12 03:21:11;;;;;;;21.07;8.03;;;2.40;99.90;;;;;;4978600;28;20033;-82
2024/01/12 03:23:37;;;;;;;21.67;7.37;;;2.40;99.90;;;;;;4977654;28;20034;-76
2024/01/12 03:26:04;;;;;;;17.90;6.57;;;2.40;99.90;;;;;;4993341;28;20738;-82
2024/01/12 03:28:30;;;;;;;19.60;8.03;;;2.50;99.90;;;;;;4976243;28;20607;-82
2024/01/12 03:30:56;;;;;;;19.17;8.53;;;2.40;99.90;;;;;;4979593;28;20524;-81
2024/01/12 03:33:22;;;;;;;17.00;7.00;;;2.50;99.90;;;;;;4979059;28;20488;-84
2024/01/12 03:35:49;;;;;;;18.97;6.97;;;2.50;99.90;;;;;;4978465;28;20089;-73
2024/01/12 03:38:15;;;;;;;16.90;6.40;;;2.50;99.90;;;;;;4979800;28;20034;-81
2024/01/12 03:40:41;;;;;;;17.17;6.93;;;2.50;99.90;;;;;;4980027;28;20046;-77
2024/01/12 03:43:08;;;;;;;18.83;7.10;;;2.50;99.90;;;;;;4978433;28;20042;-83
2024/01/12 03:45:34;;;;;;;16.67;7.27;;;2.40;99.90;;;;;;4961147;28;20030;-83
2024/01/12 03:48:00;;;;;;;25.23;8.23;;;2.50;99.90;;;;;;4978499;28;20034;-73
2024/01/12 03:50:27;;;;;;;20.83;7.30;;;2.50;99.90;;;;;;5010578;28;20512;-77
2024/01/12 03:52:53;;;;;;;20.37;7.30;;;2.50;99.90;;;;;;4960840;28;20038;-84
2024/01/12 03:55:19;;;;;;;20.03;6.67;;;2.40;99.90;;;;;;4977093;28;20043;-81
2024/01/12 03:57:46;;;;;;;16.73;6.47;;;2.40;99.90;;;;;;4976318;28;20377;-84
2024/01/12 04:00:13;;;;;;;14.13;6.13;;;2.50;99.90;;;;;;4977292;28;20038;-72
2024/01/12 04:02:39;;;;;;;17.50;6.70;;;2.40;99.90;;;;;;4994025;28;20034;-81
2024/01/12 04:05:05;;;;;;;14.47;6.50;;;2.50;99.90;;;;;;5010623;28;20692;-82
2024/01/12 04:07:32;;;;;;;17.07;7.40;;;2.50;99.90;;;;;;4994626;28;20042;-83
2024/01/12 04:09:58;;;;;;;17.23;6.33;;;2.50;99.90;;;;;;4979433;28;20030;-80
2024/01/12 04:12:24;;;;;;;17.63;6.47;;;2.50;99.90;;;;;;4980410;28;20050;-82
2024/01/12 04:14:51;;;;;;;14.63;6.50;;;2.50;99.90;;;;;;4979886;28;20046;-80
2024/01/12 04:17:17;;;;;;;17.33;6.97;;;2.50;99.90;;;;;;4976808;28;20061;-85
2024/01/12 04:19:43;;;;;;;15.80;7.07;;;2.50;99.90;;;;;;4995716;28;20030;-81
2024/01/12 04:22:10;;;;;;;18.17;6.40;;;2.50;99.90;;;;;;4980038;28;20046;-83
2024/01/12 04:24:36;;;;;;;17.83;6.23;;;2.50;99.90;;;;;;4976912;28;20030;-76
2024/01/12 04:27:03;;;;;;;15.60;6.13;;;2.50;99.90;;;;;;4959839;28;20042;-81
2024/01/12 04:29:29;;;;;;;18.90;6.97;;;2.50;99.90;;;;;;4961136;28;20382;-80
2024/01/12 04:31:55;;;;;;;17.17;5.67;;;2.50;99.90;;;;;;4961242;28;20042;-84
2024/01/12 04:34:21;;;;;;;19.87;6.70;;;2.50;99.90;;;;;;4977130;28;20270;-81
2024/01/12 04:36:48;;;;;;;22.70;6.93;;;2.50;99.90;;;;;;4972556;28;20394;-79
2024/01/12 04:39:15;;;;;;;18.37;6.67;;;2.50;99.90;;;;;;4976956;28;20105;-81
2024/01/12 04:41:41;;;;;;;18.08;8.30;;;2.50;99.90;;;;;;5009747;28;20507;-85
2024/01/12 04:44:07;;;;;;;17.93;7.57;;;2.50;99.90;;;;;;4976914;28;20034;-86
2024/01/12 04:46:37;;;;;;;22.50;7.87;;;2.40;99.90;;;;;;4976764;28;20046;-82
2024/01/12 04:49:03;;;;;;;15.47;7.40;;;2.40;99.90;;;;;;4978937;28;20061;-75
2024/01/12 04:51:30;;;;;;;28.73;7.97;;;2.40;99.90;;;;;;4961170;28;20057;-83
2024/01/12 04:53:56;;;;;;;16.83;6.67;;;2.40;99.90;;;;;;4977246;28;20041;-79
2024/01/12 04:56:23;;;;;;;16.30;6.77;;;2.40;99.90;;;;;;4979368;28;20049;-81
2024/01/12 04:58:49;;;;;;;16.67;6.70;;;2.40;99.90;;;;;;4977780;28;20061;-85
2024/01/12 05:01:16;;;;;;;16.67;6.87;;;2.40;99.90;;;;;;4977526;28;20046;-74
2024/01/12 05:03:45;;;;;;;17.33;7.03;;;2.40;99.90;;;;;;4992920;28;20034;-74
2024/01/12 05:06:12;;;;;;;18.47;6.30;;;2.40;99.90;;;;;;4978908;28;20600;-80
2024/01/12 05:08:38;;;;;;;18.97;6.93;;;2.40;99.90;;;;;;4980211;28;20030;-82
2024/01/12 05:11:04;;;;;;;15.00;6.60;;;2.40;99.90;;;;;;5013490;28;20575;-83
2024/01/12 05:13:31;;;;;;;17.10;6.50;;;2.40;99.90;;;;;;4964747;28;20430;-83
2024/01/12 05:15:57;;;;;;;13.73;6.07;;;2.40;99.90;;;;;;4981050;28;20474;-83
2024/01/12 05:18:23;;;;;;;15.10;6.77;;;2.40;99.90;;;;;;4983217;28;20040;-78
2024/01/12 05:20:50;;;;;;;13.13;5.30;;;2.40;99.90;;;;;;4980529;28;20041;-73
2024/01/12 05:23:16;;;;;;;15.60;6.23;;;2.40;99.90;;;;;;4981940;28;20034;-82
2024/01/12 05:25:42;;;;;;;17.63;6.37;;;2.40;99.90;;;;;;4982120;28;20045;-81
2024/01/12 05:28:09;;;;;;;15.60;6.23;;;2.50;99.90;;;;;;4982604;28;20054;-81
2024/01/12 05:30:35;;;;;;;17.87;6.87;;;2.50;99.90;;;;;;4996000;28;20039;-82
2024/01/12 05:33:01;;;;;;;13.23;6.30;;;2.50;99.90;;;;;;4981028;28;20046;-83
2024/01/12 05:35:28;;;;;;;16.93;6.23;;;2.50;99.90;;;;;;4997301;28;20039;-80
2024/01/12 05:37:55;;;;;;;13.82;6.10;;;2.50;99.90;;;;;;4963646;28;20046;-83
2024/01/12 05:40:21;;;;;;;22.10;8.90;;;2.50;99.90;;;;;;4964809;28;20042;-82
2024/01/12 05:42:47;;;;;;;18.47;8.93;;;2.50;99.90;;;;;;4981401;28;20030;-84
2024/01/12 05:45:14;;;;;;;26.13;9.57;;;2.50;99.90;;;;;;4998477;28;20022;-78
2024/01/12 05:47:40;;;;;;;19.17;7.13;;;2.50;99.90;;;;;;4997949;28;21975;-82
2024/01/12 05:50:07;;;;;;;15.57;7.30;;;2.50;99.90;;;;;;4979596;28;20361;-85
2024/01/12 05:52:34;;;;;;;14.33;7.80;;;2.50;99.90;;;;;;4981723;28;20182;-83
2024/01/12 05:55:01;;;;;;;18.97;8.30;;;2.50;99.90;;;;;;4947528;28;20042;-79
2024/01/12 05:57:29;;;;;;;22.73;9.03;;;2.50;99.90;;;;;;4981324;28;20049;-84
2024/01/12 05:59:56;;;;;;;22.30;7.38;;;2.50;99.90;;;;;;4978689;28;20031;-78
2024/01/12 06:02:23;;;;;;;18.03;6.33;;;2.50;99.90;;;;;;4999041;28;20030;-81
2024/01/12 06:04:49;;;;;;;15.50;6.90;;;2.50;99.90;;;;;;4983695;28;20041;-78
2024/01/12 06:07:15;;;;;;;14.37;6.10;;;2.50;99.90;;;;;;5012381;28;20365;-82
2024/01/12 06:09:42;;;;;;;11.90;5.23;;;2.50;99.90;;;;;;4981272;28;20114;-85
2024/01/12 06:12:09;;;;;;;11.83;6.23;;;2.50;99.90;;;;;;4981572;28;20037;-77
2024/01/12 06:14:36;;;;;;;11.30;5.97;;;2.60;99.90;;;;;;4993906;28;20382;-83
2024/01/12 06:17:02;;;;;;;12.47;5.80;;;2.60;99.90;;;;;;5010757;28;20030;-83
2024/01/12 06:19:28;;;;;;;14.60;5.93;;;2.60;99.90;;;;;;4977062;28;20034;-81
2024/01/12 06:21:54;;;;;;;12.97;5.73;;;2.60;99.90;;;;;;4961863;28;20042;-72
2024/01/12 06:24:21;;;;;;;11.50;5.60;;;2.60;99.90;;;;;;4980157;28;20030;-81
2024/01/12 06:26:47;;;;;;;14.23;5.23;;;2.60;99.90;;;;;;5011191;28;20500;-85
2024/01/12 06:29:13;;;;;;;18.97;6.70;;;2.60;99.90;;;;;;4980169;28;20037;-85
2024/01/12 06:31:40;;;;;;;14.37;6.17;;;2.60;99.90;;;;;;4980621;28;20404;-81
2024/01/12 06:34:06;;;;;;;16.17;5.80;;;2.60;99.90;;;;;;4995521;28;20042;-74
2024/01/12 06:36:32;;;;;;;19.50;5.53;;;2.60;99.90;;;;;;4995983;28;20044;-82
2024/01/12 06:38:58;;;;;;;11.47;5.50;;;2.60;99.90;;;;;;4980019;28;20042;-83
2024/01/12 06:41:25;;;;;;;16.23;5.90;;;2.60;99.90;;;;;;4994745;28;20042;-81
2024/01/12 06:43:51;;;;;;;14.40;6.67;;;2.50;99.90;;;;;;4980301;28;20053;-76
2024/01/12 06:46:18;;;;;;;14.87;6.30;;;2.50;99.90;;;;;;4995221;28;20026;-73
2024/01/12 06:48:44;;;;;;;14.07;6.97;;;2.50;99.90;;;;;;4977429;28;20033;-83
2024/01/12 06:51:10;;;;;;;14.23;6.50;;;2.50;99.90;;;;;;4979476;28;20064;-81
2024/01/12 06:53:37;;;;;;;12.33;5.63;;;2.50;99.90;;;;;;4947111;28;20034;-80
2024/01/12 06:56:06;;;;;;;13.77;6.00;;;2.50;99.90;;;;;;4978385;28;20045;-83
2024/01/12 06:58:33;;;;;;;11.47;5.87;;;2.50;99.90;;;;;;4979382;28;20026;-81
2024/01/12 07:00:59;;;;;;;13.13;6.33;;;2.50;99.90;;;;;;4978037;28;20478;-84
2024/01/12 07:03:26;;;;;;;16.20;6.27;;;2.50;99.90;;;;;;4996072;28;20034;-80
2024/01/12 07:05:52;;;;;;;10.73;6.10;;;2.50;99.90;;;;;;4978762;28;20186;-83
2024/01/12 07:08:18;;;;;;;9.95;5.93;;;2.50;99.90;;;;;;4979886;28;20401;-79
2024/01/12 07:10:45;;;;;;;13.63;6.27;;;2.50;99.90;;;;;;4979535;28;20493;-83
2024/01/12 07:13:12;;;;;;;12.48;6.18;;;2.50;99.90;;;;;;4979730;28;20501;-80
2024/01/12 07:15:39;;;;;;;10.50;5.60;;;2.50;99.90;;;;;;4996309;28;20049;-84
2024/01/12 07:18:05;;;;;;;14.07;5.90;;;2.50;99.90;;;;;;5010095;28;20473;-84
2024/01/12 07:20:32;;;;;;;12.93;6.05;;;2.50;99.90;;;;;;4993905;28;20041;-82
2024/01/12 07:22:58;;;;;;;15.13;5.77;;;2.50;99.90;;;;;;4980597;28;20034;-79
2024/01/12 07:25:24;;;;;;;11.03;5.30;;;2.50;99.90;;;;;;4980015;28;20041;-78
2024/01/12 07:27:51;;;;;;;17.60;6.60;;;2.40;99.90;;;;;;4977472;28;20049;-84
2024/01/12 07:30:17;;;;;;;15.60;5.93;;;2.40;99.90;;;;;;4961550;28;20061;-82
2024/01/12 07:32:43;;;;;;;12.33;5.60;;;2.40;99.90;;;;;;4962349;28;20030;-83
2024/01/12 07:35:11;;;;;;;15.57;6.43;;;2.40;99.90;;;;;;4977902;28;20038;-84
2024/01/12 07:37:38;;;;;;;15.23;5.97;;;2.50;99.90;;;;;;4978544;28;20524;-83
2024/01/12 07:40:04;;;;;;;12.97;5.83;;;2.50;99.90;;;;;;4992439;28;20030;-77
2024/01/12 07:42:31;;;;;;;12.50;5.47;;;2.50;99.90;;;;;;4980584;28;20035;-83
2024/01/12 07:44:57;;;;;;;10.43;5.67;;;2.50;99.90;;;;;;4976198;28;20392;-74
2024/01/12 07:47:23;;;;;;;12.23;5.13;;;2.50;99.90;;;;;;4977948;28;20447;-85
2024/01/12 07:49:50;;;;;;;13.27;6.00;;;2.50;99.90;;;;;;4994163;28;20481;-79
2024/01/12 07:52:16;;;;;;;10.37;6.03;;;2.50;99.90;;;;;;4979249;28;20046;-81
2024/01/12 07:54:42;;;;;;;12.00;5.67;;;2.50;99.90;;;;;;4984579;28;20054;-85
2024/01/12 07:57:09;;;;;;;16.87;5.93;;;2.50;99.90;;;;;;4982843;28;20026;-83
2024/01/12 07:59:35;;;;;;;13.77;5.67;;;2.50;99.90;;;;;;4994674;28;20041;-80
2024/01/12 08:02:02;;;;;;;14.67;6.30;;;2.60;99.90;;;;;;4978373;28;20045;-79
2024/01/12 08:04:28;;;;;;;10.93;5.80;;;2.60;99.90;;;;;;4977559;28;20034;-83
2024/01/12 08:06:55;;;;;;;12.73;5.28;;;2.60;99.90;;;;;;4977796;28;20041;-86
2024/01/12 08:09:21;;;;;;;10.03;5.43;;;2.60;99.90;;;;;;4976732;28;20034;-76
2024/01/12 08:11:47;;;;;;;10.97;6.47;;;2.60;99.90;;;;;;4977017;28;20038;-83
2024/01/12 08:14:14;;;;;;;11.10;5.77;;;2.60;99.90;;;;;;4977457;28;20038;-86
2024/01/12 08:16:40;;;;;;;13.53;5.80;;;2.60;99.90;;;;;;4993007;28;20508;-84
2024/01/12 08:19:06;;;;;;;10.80;5.50;;;2.70;99.90;;;;;;4945485;28;20041;-82
2024/01/12 08:21:33;;;;;;;13.43;5.47;;;2.60;99.90;;;;;;4977564;28;20474;-81
2024/01/12 08:23:59;;;;;;;11.65;6.38;;;2.70;99.90;;;;;;4993412;28;21356;-85
2024/01/12 08:26:25;;;;;;;14.77;6.37;;;2.70;99.90;;;;;;4977157;28;20651;-77
2024/01/12 08:28:56;;;;;;;13.90;5.70;;;2.70;99.90;;;;;;4958838;28;20038;-78
2024/01/12 08:31:22;;;;;;;11.80;5.23;;;2.70;99.90;;;;;;5007653;28;20041;-78
2024/01/12 08:33:49;;;;;;;11.37;5.10;;;2.80;99.90;;;;;;4961289;28;20034;-82
2024/01/12 08:36:16;;;;;;;14.20;5.07;;;2.80;99.90;;;;;;4976601;28;20026;-74
2024/01/12 08:38:42;;;;;;;13.80;6.33;;;2.80;99.90;;;;;;4975591;28;20042;-80
2024/01/12 08:41:08;;;;;;;12.20;5.63;;;2.80;99.90;;;;;;4975400;28;20035;-82
2024/01/12 08:43:35;;;;;;;14.53;6.67;;;2.90;99.90;;;;;;5013770;28;20037;-76
2024/01/12 08:46:01;;;;;;;12.67;5.63;;;2.90;99.90;;;;;;5013904;28;20030;-83
2024/01/12 08:48:28;;;;;;;14.50;5.83;;;3.00;99.90;;;;;;4965066;28;20035;-80
2024/01/12 08:50:54;;;;;;;15.77;6.43;;;3.00;99.90;;;;;;5012258;28;20413;-84
2024/01/12 08:53:21;;;;;;;14.33;5.87;;;3.00;99.90;;;;;;4980184;28;20046;-83
2024/01/12 08:55:47;;;;;;;11.10;6.03;;;3.00;99.90;;;;;;4964216;28;20045;-80
2024/01/12 08:58:13;;;;;;;11.90;5.27;;;3.00;99.90;;;;;;4981836;28;20038;-80
2024/01/12 09:00:39;;;;;;;14.73;5.75;;;3.10;99.90;;;;;;4976926;28;20429;-81
2024/01/12 09:03:06;;;;;;;16.60;6.30;;;3.10;99.90;;;;;;4980815;28;20034;-82
2024/01/12 09:05:32;;;;;;;15.20;6.80;;;3.10;99.90;;;;;;4996500;28;20489;-81
2024/01/12 09:07:59;;;;;;;13.40;5.90;;;3.10;99.90;;;;;;4963561;28;20584;-84
2024/01/12 09:10:25;;;;;;;15.20;5.57;;;3.20;99.90;;;;;;4981768;28;20039;-74
2024/01/12 09:12:52;;;;;;;14.97;5.40;;;3.20;99.90;;;;;;4979944;28;20605;-78
2024/01/12 09:15:18;;;;;;;15.07;6.17;;;3.30;99.90;;;;;;4963487;28;20045;-83
2024/01/12 09:17:44;;;;;;;9.75;4.72;;;3.30;99.90;;;;;;4981447;28;20034;-80
2024/01/12 09:20:11;;;;;;;16.00;7.30;;;3.40;99.90;;;;;;4980874;28;20485;-85
2024/01/12 09:22:37;;;;;;;12.77;6.55;;;3.40;99.90;;;;;;4979417;28;20518;-76
2024/01/12 09:25:04;;;;;;;13.07;5.47;;;3.40;99.90;;;;;;4980992;28;20035;-84
2024/01/12 09:27:30;;;;;;;12.27;5.40;;;3.50;99.90;;;;;;4964958;28;20034;-84
2024/01/12 09:29:56;;;;;;;13.65;6.22;;;3.50;99.90;;;;;;4981242;28;20030;-84
2024/01/12 09:32:23;;;;;;;18.75;6.50;;;3.50;99.90;;;;;;4981011;28;20034;-84
2024/01/12 09:34:50;;;;;;;12.38;6.30;;;3.50;99.90;;;;;;4963104;28;20050;-75
2024/01/12 09:37:16;;;;;;;12.57;7.00;;;3.60;99.90;;;;;;4963423;28;20043;-82
2024/01/12 09:39:42;;;;;;;13.00;5.70;;;3.70;99.90;;;;;;4963803;28;20034;-83
2024/01/12 09:42:14;;;;;;;14.07;6.23;;;3.70;99.90;;;;;;4979721;28;20512;-85
2024/01/12 09:44:45;;;;;;;14.20;5.60;;;3.70;99.90;;;;;;4981265;28;20408;-81
2024/01/12 09:47:12;;;;;;;12.07;4.53;;;3.70;99.90;;;;;;4980814;28;20038;-84
2024/01/12 09:49:41;;;;;;;8.65;4.60;;;3.80;99.90;;;;;;4982015;28;20049;-75
2024/01/12 09:52:10;;;;;;;15.60;4.33;;;3.80;99.90;;;;;;4995271;28;20417;-82
2024/01/12 09:54:36;;;;;;;13.70;4.77;;;3.90;99.90;;;;;;4979372;28;20030;-80
2024/01/12 09:57:07;;;;;;;14.68;5.38;;;3.90;99.90;;;;;;4980765;28;20049;-81
2024/01/12 09:59:36;;;;;;;9.50;5.38;;;3.90;99.90;;;;;;4991665;28;20539;-84
2024/01/12 10:02:08;;;;;;;11.52;5.80;;;4.00;99.90;;;;;;4963586;28;20033;-83
2024/01/12 10:04:35;;;;;;;16.67;4.83;;;4.00;99.90;;;;;;4978298;28;20042;-82
2024/01/12 10:07:01;;;;;;;14.07;6.33;;;4.00;99.90;;;;;;4980672;28;20038;-82
2024/01/12 10:09:28;;;;;;;15.50;7.00;;;4.00;99.90;;;;;;4980349;28;20037;-80
2024/01/12 10:11:55;;;;;;;15.95;7.30;;;4.10;99.90;;;;;;4977457;28;20042;-79
2024/01/12 10:14:22;;;;;;;17.83;6.20;;;4.10;99.90;;;;;;5010809;28;20926;-82
2024/01/12 10:16:53;;;;;;;14.27;6.70;;;4.10;99.90;;;;;;4963009;28;20029;-80
2024/01/12 10:19:19;;;;;;;13.40;5.88;;;4.10;99.90;;;;;;4982119;28;20022;-84
2024/01/12 10:21:46;;;;;;;14.93;6.82;;;4.10;99.90;;;;;;4978490;28;20528;-84
2024/01/12 10:24:19;;;;;;;13.77;6.50;;;4.20;99.90;;;;;;4978274;28;20073;-77
2024/01/12 10:26:46;;;;;;;13.30;5.28;;;4.20;99.90;;;;;;4962031;28;20030;-84
2024/01/12 10:29:14;;;;;;;13.63;6.38;;;4.20;99.90;;;;;;4979159;28;20034;-80
2024/01/12 10:31:42;;;;;;;13.18;7.10;;;4.20;99.90;;;;;;4990181;28;20295;-80
2024/01/12 10:34:14;;;;;;;16.65;6.88;;;4.20;99.90;;;;;;4976240;28;20022;-78
2024/01/12 10:36:41;;;;;;;16.83;6.88;;;4.20;99.90;;;;;;4961562;28;20030;-83
2024/01/12 10:39:12;;;;;;;16.58;6.82;;;4.10;99.90;;;;;;4976892;28;20034;-74
2024/01/12 10:41:40;;;;;;;14.70;5.82;;;4.20;99.90;;;;;;4992507;28;20042;-74
2024/01/12 10:44:07;;;;;;;20.33;5.93;;;4.10;99.90;;;;;;5010512;28;20030;-83
2024/01/12 10:46:44;;;;;;;14.30;6.38;;;4.20;99.90;;;;;;4994363;28;20041;-82
2024/01/12 10:49:18;;;;;;;12.40;5.65;;;4.20;99.90;;;;;;4976505;28;20350;-82
2024/01/12 10:52:09;;;;;;;15.50;5.40;;;4.20;99.90;;;;;;4977941;28;20053;-78
2024/01/12 10:54:47;;;;;;;16.13;6.43;;;4.20;99.90;;;;;;4978022;28;20116;-82
2024/01/12 10:57:14;;;;;;;11.82;6.28;;;4.30;99.90;;;;;;4980318;28;20505;-80
2024/01/12 10:59:41;;;;;;;14.55;7.30;;;4.30;99.90;;;;;;4962739;28;20030;-75
2024/01/12 11:02:11;;;;;;;12.07;6.47;;;4.40;99.90;;;;;;4993662;28;20034;-81
2024/01/12 11:04:40;;;;;;;17.02;7.43;;;4.40;99.90;;;;;;4946592;28;20057;-82
2024/01/12 11:07:06;;;;;;;12.45;7.05;;;4.40;99.90;;;;;;4990172;28;20509;-81
2024/01/12 11:09:33;;;;;;;13.75;6.25;;;4.40;99.90;;;;;;4975709;28;20046;-80
2024/01/12 11:12:07;;;;;;;10.65;6.28;;;4.40;99.90;;;;;;4978221;28;20026;-82
2024/01/12 11:14:35;;;;;;;13.45;6.18;;;4.40;99.90;;;;;;4993475;28;20034;-79
2024/01/12 11:17:01;;;;;;;9.60;6.53;;;4.40;99.90;;;;;;4977000;28;20018;-82
2024/01/12 11:19:29;;;;;;;11.93;5.68;;;4.40;99.90;;;;;;4975726;28;20438;-82
2024/01/12 11:22:09;;;;;;;16.90;7.13;;;4.50;99.90;;;;;;4967163;28;20030;-80
2024/01/12 11:24:36;;;;;;;12.45;6.25;;;4.50;99.90;;;;;;4977812;28;20481;-79
2024/01/12 11:27:04;;;;;;;16.98;6.53;;;4.50;99.90;;;;;;4975276;28;20049;-82
2024/01/12 11:29:31;;;;;;;18.00;6.28;;;4.50;99.90;;;;;;4994367;28;20033;-74
2024/01/12 11:32:05;;;;;;;10.95;6.25;;;4.50;99.90;;;;;;4977022;28;20114;-78
2024/01/12 11:34:35;;;;;;;15.07;5.97;;;4.50;99.90;;;;;;4958896;28;20464;-78
2024/01/12 11:37:02;;;;;;;13.70;5.70;;;4.60;99.90;;;;;;4977012;28;20041;-80
2024/01/12 11:39:33;;;;;;;11.27;5.65;;;4.60;99.90;;;;;;4980442;28;20373;-82
2024/01/12 11:42:02;;;;;;;12.48;5.78;;;4.60;99.90;;;;;;4979228;28;20390;-83
2024/01/12 11:44:28;;;;;;;8.82;5.85;;;4.60;99.90;;;;;;4977489;28;20026;-76
2024/01/12 11:46:55;;;;;;;16.60;6.97;;;4.70;99.90;;;;;;4992123;28;20528;-82
2024/01/12 11:49:23;;;;;;;14.70;6.93;;;4.70;99.90;;;;;;4976631;28;20466;-80
2024/01/12 11:51:49;;;;;;;14.85;6.78;;;4.70;99.90;;;;;;4958343;28;20050;-78
2024/01/12 11:54:16;;;;;;;12.68;5.75;;;4.70;99.90;;;;;;4960353;28;20428;-83
2024/01/12 11:56:42;;;;;;;11.85;7.03;;;4.70;99.90;;;;;;5008910;28;20393;-83
2024/01/12 11:59:08;;;;;;;13.75;5.47;;;4.70;99.90;;;;;;4959124;28;20042;-81
2024/01/12 12:01:35;;;;;;;15.93;6.45;;;4.70;99.90;;;;;;5009415;28;20038;-83
2024/01/12 12:04:02;;;;;;;11.45;5.80;;;4.80;99.90;;;;;;4977796;28;20030;-82
2024/01/12 12:06:30;;;;;;;14.85;6.07;;;4.80;99.90;;;;;;4959734;28;20038;-81
2024/01/12 12:08:58;;;;;;;17.10;6.13;;;4.90;99.90;;;;;;4992450;28;20038;-78
2024/01/12 12:11:25;;;;;;;10.80;6.03;;;4.90;99.90;;;;;;4974994;28;20050;-81
2024/01/12 12:13:53;;;;;;;11.75;6.38;;;4.90;99.90;;;;;;4978379;28;20045;-76
2024/01/12 12:16:19;;;;;;;12.15;7.10;;;5.00;99.90;;;;;;4958295;28;20049;-83
2024/01/12 12:18:46;;;;;;;13.25;6.93;;;5.00;99.90;;;;;;4961628;28;20034;-86
2024/01/12 12:21:12;;;;;;;14.70;6.50;;;4.90;99.90;;;;;;4979249;28;20030;-82
2024/01/12 12:23:41;;;;;;;14.10;6.30;;;4.90;99.90;;;;;;4976895;28;20042;-78
2024/01/12 12:26:08;;;;;;;13.15;5.57;;;5.00;99.90;;;;;;4977670;28;20030;-86
2024/01/12 12:28:35;;;;;;;12.05;5.70;;;5.00;99.90;;;;;;4976166;28;20397;-76
2024/01/12 12:31:01;;;;;;;11.65;5.35;;;5.00;99.90;;;;;;5009861;28;21646;-85
2024/01/12 12:33:28;;;;;;;11.77;5.18;;;5.10;99.90;;;;;;4978597;28;20544;-76
2024/01/12 12:36:02;;;;;;;13.20;5.35;;;5.10;99.90;;;;;;4990745;28;20045;-85
2024/01/12 12:38:29;;;;;;;12.60;5.35;;;5.10;99.90;;;;;;4992100;28;20536;-79
2024/01/12 12:40:55;;;;;;;11.07;4.43;;;5.10;99.90;;;;;;4977116;28;20605;-80
2024/01/12 12:43:22;;;;;;;15.00;5.57;;;5.10;99.90;;;;;;4991136;28;20034;-82